sensor_id;sensor_type;location;lat;lon;timestamp;P1;durP1;ratioP1;P2;durP2;ratioP2
23714;SDS011;12036;50.858;4.472;2023-02-28T00:00:10;12.68;;;6.72;;
23714;SDS011;12036;50.858;4.472;2023-02-28T00:02:37;10.68;;;6.07;;
23714;SDS011;12036;50.858;4.472;2023-02-28T00:05:05;9.10;;;5.85;;
23714;SDS011;12036;50.858;4.472;2023-02-28T00:07:32;8.80;;;6.10;;
23714;SDS011;12036;50.858;4.472;2023-02-28T00:09:57;8.43;;;5.90;;
23714;SDS011;12036;50.858;4.472;2023-02-28T00:12:23;10.15;;;5.32;;
23714;SDS011;12036;50.858;4.472;2023-02-28T00:14:49;10.10;;;6.32;;
23714;SDS011;12036;50.858;4.472;2023-02-28T00:17:15;10.63;;;6.05;;
23714;SDS011;12036;50.858;4.472;2023-02-28T00:19:46;8.43;;;5.88;;
23714;SDS011;12036;50.858;4.472;2023-02-28T00:22:13;10.43;;;6.28;;
23714;SDS011;12036;50.858;4.472;2023-02-28T00:24:40;10.05;;;5.78;;
23714;SDS011;12036;50.858;4.472;2023-02-28T00:27:06;9.75;;;6.38;;
23714;SDS011;12036;50.858;4.472;2023-02-28T00:29:31;9.30;;;6.15;;
23714;SDS011;12036;50.858;4.472;2023-02-28T00:31:57;7.63;;;5.43;;
23714;SDS011;12036;50.858;4.472;2023-02-28T00:34:23;8.88;;;5.47;;
23714;SDS011;12036;50.858;4.472;2023-02-28T00:36:48;10.00;;;6.18;;
23714;SDS011;12036;50.858;4.472;2023-02-28T00:39:14;9.38;;;5.45;;
23714;SDS011;12036;50.858;4.472;2023-02-28T00:41:40;11.48;;;6.00;;
23714;SDS011;12036;50.858;4.472;2023-02-28T00:44:06;8.75;;;6.40;;
23714;SDS011;12036;50.858;4.472;2023-02-28T00:46:32;10.77;;;5.90;;
23714;SDS011;12036;50.858;4.472;2023-02-28T00:48:57;8.23;;;5.32;;
23714;SDS011;12036;50.858;4.472;2023-02-28T00:51:23;9.82;;;5.65;;
23714;SDS011;12036;50.858;4.472;2023-02-28T00:53:49;9.30;;;5.68;;
23714;SDS011;12036;50.858;4.472;2023-02-28T00:56:14;9.95;;;5.47;;
23714;SDS011;12036;50.858;4.472;2023-02-28T00:58:40;8.73;;;5.78;;
23714;SDS011;12036;50.858;4.472;2023-02-28T01:01:06;6.95;;;5.30;;
23714;SDS011;12036;50.858;4.472;2023-02-28T01:03:31;9.32;;;5.70;;
23714;SDS011;12036;50.858;4.472;2023-02-28T01:05:57;11.95;;;6.38;;
23714;SDS011;12036;50.858;4.472;2023-02-28T01:08:23;11.70;;;6.50;;
23714;SDS011;12036;50.858;4.472;2023-02-28T01:10:49;8.35;;;6.05;;
23714;SDS011;12036;50.858;4.472;2023-02-28T01:13:14;8.18;;;5.60;;
23714;SDS011;12036;50.858;4.472;2023-02-28T01:15:41;8.85;;;6.47;;
23714;SDS011;12036;50.858;4.472;2023-02-28T01:18:11;7.18;;;5.40;;
23714;SDS011;12036;50.858;4.472;2023-02-28T01:20:37;10.20;;;6.20;;
23714;SDS011;12036;50.858;4.472;2023-02-28T01:23:03;9.68;;;6.32;;
23714;SDS011;12036;50.858;4.472;2023-02-28T01:25:28;9.35;;;6.50;;
23714;SDS011;12036;50.858;4.472;2023-02-28T01:27:54;8.48;;;6.68;;
23714;SDS011;12036;50.858;4.472;2023-02-28T01:30:20;9.48;;;6.18;;
23714;SDS011;12036;50.858;4.472;2023-02-28T01:32:45;9.43;;;6.57;;
23714;SDS011;12036;50.858;4.472;2023-02-28T01:35:11;12.20;;;6.47;;
23714;SDS011;12036;50.858;4.472;2023-02-28T01:37:37;7.80;;;5.82;;
23714;SDS011;12036;50.858;4.472;2023-02-28T01:40:03;9.38;;;6.00;;
23714;SDS011;12036;50.858;4.472;2023-02-28T01:42:29;9.07;;;6.30;;
23714;SDS011;12036;50.858;4.472;2023-02-28T01:45:16;12.77;;;6.88;;
23714;SDS011;12036;50.858;4.472;2023-02-28T01:47:47;12.65;;;6.30;;
23714;SDS011;12036;50.858;4.472;2023-02-28T01:50:19;12.20;;;6.43;;
23714;SDS011;12036;50.858;4.472;2023-02-28T01:52:48;9.68;;;6.55;;
23714;SDS011;12036;50.858;4.472;2023-02-28T01:55:15;10.95;;;6.60;;
23714;SDS011;12036;50.858;4.472;2023-02-28T01:57:46;10.75;;;7.43;;
23714;SDS011;12036;50.858;4.472;2023-02-28T02:00:16;13.25;;;7.45;;
23714;SDS011;12036;50.858;4.472;2023-02-28T02:02:45;11.50;;;6.63;;
23714;SDS011;12036;50.858;4.472;2023-02-28T02:05:18;12.15;;;6.90;;
23714;SDS011;12036;50.858;4.472;2023-02-28T02:07:46;13.73;;;7.25;;
23714;SDS011;12036;50.858;4.472;2023-02-28T02:15:14;8.55;;;6.90;;
23714;SDS011;12036;50.858;4.472;2023-02-28T02:17:48;11.50;;;6.97;;
23714;SDS011;12036;50.858;4.472;2023-02-28T02:32:08;10.65;;;7.20;;
23714;SDS011;12036;50.858;4.472;2023-02-28T02:35:17;9.38;;;7.25;;
23714;SDS011;12036;50.858;4.472;2023-02-28T02:40:27;9.90;;;7.03;;
23714;SDS011;12036;50.858;4.472;2023-02-28T02:46:20;9.98;;;7.15;;
23714;SDS011;12036;50.858;4.472;2023-02-28T02:49:03;11.40;;;7.05;;
23714;SDS011;12036;50.858;4.472;2023-02-28T02:51:33;14.60;;;7.63;;
23714;SDS011;12036;50.858;4.472;2023-02-28T02:56:46;14.23;;;7.72;;
23714;SDS011;12036;50.858;4.472;2023-02-28T02:59:14;10.00;;;7.70;;
23714;SDS011;12036;50.858;4.472;2023-02-28T03:01:48;11.40;;;8.07;;
23714;SDS011;12036;50.858;4.472;2023-02-28T03:04:18;11.57;;;7.75;;
23714;SDS011;12036;50.858;4.472;2023-02-28T03:06:46;13.68;;;8.05;;
23714;SDS011;12036;50.858;4.472;2023-02-28T03:09:12;14.35;;;8.82;;
23714;SDS011;12036;50.858;4.472;2023-02-28T03:11:38;14.00;;;8.48;;
23714;SDS011;12036;50.858;4.472;2023-02-28T03:14:11;11.15;;;7.97;;
23714;SDS011;12036;50.858;4.472;2023-02-28T03:19:52;15.00;;;8.05;;
23714;SDS011;12036;50.858;4.472;2023-02-28T03:25:22;12.10;;;8.05;;
23714;SDS011;12036;50.858;4.472;2023-02-28T03:28:09;12.88;;;7.97;;
23714;SDS011;12036;50.858;4.472;2023-02-28T03:30:54;12.95;;;8.10;;
23714;SDS011;12036;50.858;4.472;2023-02-28T03:33:41;13.20;;;7.88;;
23714;SDS011;12036;50.858;4.472;2023-02-28T03:36:12;10.60;;;7.57;;
23714;SDS011;12036;50.858;4.472;2023-02-28T03:41:56;11.48;;;8.10;;
23714;SDS011;12036;50.858;4.472;2023-02-28T03:44:06;16.05;;;9.25;;
23714;SDS011;12036;50.858;4.472;2023-02-28T03:46:40;14.68;;;9.07;;
23714;SDS011;12036;50.858;4.472;2023-02-28T03:49:14;12.90;;;8.60;;
23714;SDS011;12036;50.858;4.472;2023-02-28T03:51:50;14.90;;;8.20;;
23714;SDS011;12036;50.858;4.472;2023-02-28T03:54:18;16.23;;;9.35;;
23714;SDS011;12036;50.858;4.472;2023-02-28T04:01:51;13.18;;;8.75;;
23714;SDS011;12036;50.858;4.472;2023-02-28T04:04:17;11.30;;;8.55;;
23714;SDS011;12036;50.858;4.472;2023-02-28T04:06:43;20.17;;;8.80;;
23714;SDS011;12036;50.858;4.472;2023-02-28T04:09:10;12.88;;;8.65;;
23714;SDS011;12036;50.858;4.472;2023-02-28T04:14:05;12.63;;;9.15;;
23714;SDS011;12036;50.858;4.472;2023-02-28T04:16:32;13.82;;;9.75;;
23714;SDS011;12036;50.858;4.472;2023-02-28T04:18:59;16.08;;;9.13;;
23714;SDS011;12036;50.858;4.472;2023-02-28T04:21:29;14.10;;;9.48;;
23714;SDS011;12036;50.858;4.472;2023-02-28T04:24:16;15.98;;;9.60;;
23714;SDS011;12036;50.858;4.472;2023-02-28T04:26:48;15.50;;;10.25;;
23714;SDS011;12036;50.858;4.472;2023-02-28T04:29:22;15.57;;;10.38;;
23714;SDS011;12036;50.858;4.472;2023-02-28T04:31:52;11.43;;;8.75;;
23714;SDS011;12036;50.858;4.472;2023-02-28T04:34:19;16.27;;;9.27;;
23714;SDS011;12036;50.858;4.472;2023-02-28T04:36:46;15.25;;;9.65;;
23714;SDS011;12036;50.858;4.472;2023-02-28T04:39:14;13.32;;;9.15;;
23714;SDS011;12036;50.858;4.472;2023-02-28T04:41:40;16.60;;;9.38;;
23714;SDS011;12036;50.858;4.472;2023-02-28T04:44:06;13.93;;;9.02;;
23714;SDS011;12036;50.858;4.472;2023-02-28T04:46:32;18.83;;;10.25;;
23714;SDS011;12036;50.858;4.472;2023-02-28T04:48:57;16.15;;;9.82;;
23714;SDS011;12036;50.858;4.472;2023-02-28T04:51:24;14.82;;;9.50;;
23714;SDS011;12036;50.858;4.472;2023-02-28T04:53:49;14.32;;;9.82;;
23714;SDS011;12036;50.858;4.472;2023-02-28T04:56:15;13.18;;;9.32;;
23714;SDS011;12036;50.858;4.472;2023-02-28T04:58:43;15.63;;;10.02;;
23714;SDS011;12036;50.858;4.472;2023-02-28T05:01:17;14.73;;;10.10;;
23714;SDS011;12036;50.858;4.472;2023-02-28T05:03:46;16.17;;;10.10;;
23714;SDS011;12036;50.858;4.472;2023-02-28T05:06:12;15.50;;;10.55;;
23714;SDS011;12036;50.858;4.472;2023-02-28T05:08:39;13.60;;;10.00;;
23714;SDS011;12036;50.858;4.472;2023-02-28T05:14:00;18.02;;;10.25;;
23714;SDS011;12036;50.858;4.472;2023-02-28T05:16:26;13.68;;;10.10;;
23714;SDS011;12036;50.858;4.472;2023-02-28T05:18:52;10.75;;;9.07;;
23714;SDS011;12036;50.858;4.472;2023-02-28T05:21:32;17.50;;;9.73;;
23714;SDS011;12036;50.858;4.472;2023-02-28T05:24:00;17.55;;;10.32;;
23714;SDS011;12036;50.858;4.472;2023-02-28T05:26:27;15.35;;;10.40;;
23714;SDS011;12036;50.858;4.472;2023-02-28T05:28:53;16.10;;;8.90;;
23714;SDS011;12036;50.858;4.472;2023-02-28T05:31:19;14.85;;;9.07;;
23714;SDS011;12036;50.858;4.472;2023-02-28T05:33:45;19.58;;;10.55;;
23714;SDS011;12036;50.858;4.472;2023-02-28T05:36:11;14.88;;;10.05;;
23714;SDS011;12036;50.858;4.472;2023-02-28T05:38:37;15.35;;;9.70;;
23714;SDS011;12036;50.858;4.472;2023-02-28T05:41:09;14.93;;;9.77;;
23714;SDS011;12036;50.858;4.472;2023-02-28T05:43:36;16.35;;;9.35;;
23714;SDS011;12036;50.858;4.472;2023-02-28T05:46:03;20.40;;;10.98;;
23714;SDS011;12036;50.858;4.472;2023-02-28T05:48:30;16.92;;;10.15;;
23714;SDS011;12036;50.858;4.472;2023-02-28T05:50:57;16.92;;;10.02;;
23714;SDS011;12036;50.858;4.472;2023-02-28T05:53:23;15.88;;;9.23;;
23714;SDS011;12036;50.858;4.472;2023-02-28T05:55:48;14.60;;;9.43;;
23714;SDS011;12036;50.858;4.472;2023-02-28T05:58:14;19.55;;;10.05;;
23714;SDS011;12036;50.858;4.472;2023-02-28T06:00:39;16.92;;;9.77;;
23714;SDS011;12036;50.858;4.472;2023-02-28T06:03:05;15.35;;;10.05;;
23714;SDS011;12036;50.858;4.472;2023-02-28T06:05:31;14.48;;;8.32;;
23714;SDS011;12036;50.858;4.472;2023-02-28T06:07:57;14.52;;;9.52;;
23714;SDS011;12036;50.858;4.472;2023-02-28T06:10:22;14.13;;;9.07;;
23714;SDS011;12036;50.858;4.472;2023-02-28T06:12:48;13.65;;;8.95;;
23714;SDS011;12036;50.858;4.472;2023-02-28T06:15:14;12.48;;;9.65;;
23714;SDS011;12036;50.858;4.472;2023-02-28T06:17:42;16.33;;;9.20;;
23714;SDS011;12036;50.858;4.472;2023-02-28T06:20:08;11.85;;;8.75;;
23714;SDS011;12036;50.858;4.472;2023-02-28T06:22:35;17.73;;;10.23;;
23714;SDS011;12036;50.858;4.472;2023-02-28T06:25:02;15.27;;;10.07;;
23714;SDS011;12036;50.858;4.472;2023-02-28T06:27:29;16.50;;;9.90;;
23714;SDS011;12036;50.858;4.472;2023-02-28T06:29:56;17.63;;;10.00;;
23714;SDS011;12036;50.858;4.472;2023-02-28T06:32:21;16.67;;;9.50;;
23714;SDS011;12036;50.858;4.472;2023-02-28T06:34:47;16.90;;;10.02;;
23714;SDS011;12036;50.858;4.472;2023-02-28T06:37:13;16.13;;;9.80;;
23714;SDS011;12036;50.858;4.472;2023-02-28T06:39:39;16.20;;;9.45;;
23714;SDS011;12036;50.858;4.472;2023-02-28T06:42:05;19.70;;;9.95;;
23714;SDS011;12036;50.858;4.472;2023-02-28T06:44:30;14.43;;;9.27;;
23714;SDS011;12036;50.858;4.472;2023-02-28T06:47:00;17.05;;;9.48;;
23714;SDS011;12036;50.858;4.472;2023-02-28T06:49:28;17.08;;;10.00;;
23714;SDS011;12036;50.858;4.472;2023-02-28T06:51:55;13.13;;;9.48;;
23714;SDS011;12036;50.858;4.472;2023-02-28T06:54:20;14.10;;;9.07;;
23714;SDS011;12036;50.858;4.472;2023-02-28T06:56:46;17.00;;;9.77;;
23714;SDS011;12036;50.858;4.472;2023-02-28T06:59:12;18.90;;;9.68;;
23714;SDS011;12036;50.858;4.472;2023-02-28T07:01:38;12.13;;;9.27;;
23714;SDS011;12036;50.858;4.472;2023-02-28T07:04:04;15.63;;;9.10;;
23714;SDS011;12036;50.858;4.472;2023-02-28T07:06:31;14.68;;;9.32;;
23714;SDS011;12036;50.858;4.472;2023-02-28T07:08:56;14.35;;;9.05;;
23714;SDS011;12036;50.858;4.472;2023-02-28T07:11:23;13.20;;;9.00;;
23714;SDS011;12036;50.858;4.472;2023-02-28T07:13:54;15.70;;;9.25;;
23714;SDS011;12036;50.858;4.472;2023-02-28T07:16:20;14.80;;;8.80;;
23714;SDS011;12036;50.858;4.472;2023-02-28T07:18:46;16.83;;;8.77;;
23714;SDS011;12036;50.858;4.472;2023-02-28T07:21:12;14.60;;;9.90;;
23714;SDS011;12036;50.858;4.472;2023-02-28T07:23:38;15.88;;;9.68;;
23714;SDS011;12036;50.858;4.472;2023-02-28T07:26:07;14.07;;;8.93;;
23714;SDS011;12036;50.858;4.472;2023-02-28T07:28:39;16.25;;;9.18;;
23714;SDS011;12036;50.858;4.472;2023-02-28T07:31:09;14.45;;;8.13;;
23714;SDS011;12036;50.858;4.472;2023-02-28T07:33:36;14.13;;;8.43;;
23714;SDS011;12036;50.858;4.472;2023-02-28T07:36:23;11.93;;;8.45;;
23714;SDS011;12036;50.858;4.472;2023-02-28T07:38:48;11.73;;;8.07;;
23714;SDS011;12036;50.858;4.472;2023-02-28T07:41:19;15.45;;;8.70;;
23714;SDS011;12036;50.858;4.472;2023-02-28T07:43:46;14.07;;;7.97;;
23714;SDS011;12036;50.858;4.472;2023-02-28T07:46:13;12.90;;;7.57;;
23714;SDS011;12036;50.858;4.472;2023-02-28T07:48:40;12.93;;;8.05;;
23714;SDS011;12036;50.858;4.472;2023-02-28T07:51:06;11.85;;;7.90;;
23714;SDS011;12036;50.858;4.472;2023-02-28T07:53:32;12.75;;;8.43;;
23714;SDS011;12036;50.858;4.472;2023-02-28T07:55:58;14.82;;;8.20;;
23714;SDS011;12036;50.858;4.472;2023-02-28T07:58:25;11.45;;;7.50;;
23714;SDS011;12036;50.858;4.472;2023-02-28T08:00:52;13.70;;;8.43;;
23714;SDS011;12036;50.858;4.472;2023-02-28T08:03:19;11.73;;;8.05;;
23714;SDS011;12036;50.858;4.472;2023-02-28T08:05:54;13.77;;;8.57;;
23714;SDS011;12036;50.858;4.472;2023-02-28T08:08:20;12.63;;;7.50;;
23714;SDS011;12036;50.858;4.472;2023-02-28T08:10:47;9.30;;;6.90;;
23714;SDS011;12036;50.858;4.472;2023-02-28T08:13:13;9.02;;;6.75;;
23714;SDS011;12036;50.858;4.472;2023-02-28T08:15:40;13.52;;;6.65;;
23714;SDS011;12036;50.858;4.472;2023-02-28T08:18:07;11.70;;;7.07;;
23714;SDS011;12036;50.858;4.472;2023-02-28T08:20:33;11.95;;;6.72;;
23714;SDS011;12036;50.858;4.472;2023-02-28T08:22:58;12.02;;;6.53;;
23714;SDS011;12036;50.858;4.472;2023-02-28T08:25:24;9.75;;;6.97;;
23714;SDS011;12036;50.858;4.472;2023-02-28T08:27:50;13.55;;;6.53;;
23714;SDS011;12036;50.858;4.472;2023-02-28T08:30:17;9.80;;;5.70;;
23714;SDS011;12036;50.858;4.472;2023-02-28T08:32:43;11.07;;;5.78;;
23714;SDS011;12036;50.858;4.472;2023-02-28T08:35:08;11.15;;;5.88;;
23714;SDS011;12036;50.858;4.472;2023-02-28T08:37:34;7.60;;;5.32;;
23714;SDS011;12036;50.858;4.472;2023-02-28T08:40:00;7.47;;;5.50;;
23714;SDS011;12036;50.858;4.472;2023-02-28T08:42:26;6.88;;;5.28;;
23714;SDS011;12036;50.858;4.472;2023-02-28T08:44:52;8.30;;;5.50;;
23714;SDS011;12036;50.858;4.472;2023-02-28T08:47:17;6.90;;;5.07;;
23714;SDS011;12036;50.858;4.472;2023-02-28T08:49:43;7.93;;;5.18;;
23714;SDS011;12036;50.858;4.472;2023-02-28T08:52:09;6.57;;;5.07;;
23714;SDS011;12036;50.858;4.472;2023-02-28T08:54:35;8.00;;;5.00;;
23714;SDS011;12036;50.858;4.472;2023-02-28T08:57:01;6.07;;;4.40;;
23714;SDS011;12036;50.858;4.472;2023-02-28T08:59:27;14.75;;;5.38;;
23714;SDS011;12036;50.858;4.472;2023-02-28T09:01:53;9.75;;;5.05;;
23714;SDS011;12036;50.858;4.472;2023-02-28T09:04:19;6.63;;;4.72;;
23714;SDS011;12036;50.858;4.472;2023-02-28T09:06:45;12.52;;;4.65;;
23714;SDS011;12036;50.858;4.472;2023-02-28T09:09:10;7.85;;;4.07;;
23714;SDS011;12036;50.858;4.472;2023-02-28T09:11:36;5.80;;;3.92;;
23714;SDS011;12036;50.858;4.472;2023-02-28T09:14:02;9.27;;;4.47;;
23714;SDS011;12036;50.858;4.472;2023-02-28T09:16:29;5.70;;;3.63;;
23714;SDS011;12036;50.858;4.472;2023-02-28T09:18:55;6.88;;;3.67;;
23714;SDS011;12036;50.858;4.472;2023-02-28T09:21:21;7.38;;;3.60;;
23714;SDS011;12036;50.858;4.472;2023-02-28T09:23:48;6.57;;;3.88;;
23714;SDS011;12036;50.858;4.472;2023-02-28T09:26:19;5.75;;;3.45;;
23714;SDS011;12036;50.858;4.472;2023-02-28T09:28:50;5.70;;;3.67;;
23714;SDS011;12036;50.858;4.472;2023-02-28T09:31:18;9.05;;;3.53;;
23714;SDS011;12036;50.858;4.472;2023-02-28T09:33:49;6.05;;;3.80;;
23714;SDS011;12036;50.858;4.472;2023-02-28T09:36:16;6.20;;;3.60;;
23714;SDS011;12036;50.858;4.472;2023-02-28T09:38:42;6.60;;;3.17;;
23714;SDS011;12036;50.858;4.472;2023-02-28T09:41:13;3.75;;;3.20;;
23714;SDS011;12036;50.858;4.472;2023-02-28T09:43:45;4.20;;;2.95;;
23714;SDS011;12036;50.858;4.472;2023-02-28T09:48:58;4.63;;;3.40;;
23714;SDS011;12036;50.858;4.472;2023-02-28T09:54:13;4.95;;;2.92;;
23714;SDS011;12036;50.858;4.472;2023-02-28T09:56:55;8.70;;;3.30;;
23714;SDS011;12036;50.858;4.472;2023-02-28T10:01:57;5.35;;;3.55;;
23714;SDS011;12036;50.858;4.472;2023-02-28T10:04:46;3.70;;;2.58;;
23714;SDS011;12036;50.858;4.472;2023-02-28T10:11:00;3.25;;;2.75;;
23714;SDS011;12036;50.858;4.472;2023-02-28T10:13:26;3.08;;;2.22;;
23714;SDS011;12036;50.858;4.472;2023-02-28T10:16:16;3.15;;;2.20;;
23714;SDS011;12036;50.858;4.472;2023-02-28T10:18:56;2.45;;;2.17;;
23714;SDS011;12036;50.858;4.472;2023-02-28T10:21:44;3.92;;;2.60;;
23714;SDS011;12036;50.858;4.472;2023-02-28T10:26:56;3.15;;;1.88;;
23714;SDS011;12036;50.858;4.472;2023-02-28T10:29:26;2.72;;;1.77;;
23714;SDS011;12036;50.858;4.472;2023-02-28T10:31:54;2.78;;;2.08;;
23714;SDS011;12036;50.858;4.472;2023-02-28T10:34:20;2.85;;;2.10;;
23714;SDS011;12036;50.858;4.472;2023-02-28T10:36:46;3.38;;;1.88;;
23714;SDS011;12036;50.858;4.472;2023-02-28T10:39:34;2.95;;;2.10;;
23714;SDS011;12036;50.858;4.472;2023-02-28T10:42:21;4.00;;;2.13;;
23714;SDS011;12036;50.858;4.472;2023-02-28T10:44:47;2.80;;;1.88;;
23714;SDS011;12036;50.858;4.472;2023-02-28T10:47:16;3.08;;;1.90;;
23714;SDS011;12036;50.858;4.472;2023-02-28T10:52:14;2.05;;;1.70;;
23714;SDS011;12036;50.858;4.472;2023-02-28T10:58:01;2.92;;;1.80;;
23714;SDS011;12036;50.858;4.472;2023-02-28T11:00:31;4.22;;;2.25;;
23714;SDS011;12036;50.858;4.472;2023-02-28T11:02:59;2.65;;;2.17;;
23714;SDS011;12036;50.858;4.472;2023-02-28T11:05:26;3.38;;;2.47;;
23714;SDS011;12036;50.858;4.472;2023-02-28T11:07:53;2.90;;;2.15;;
23714;SDS011;12036;50.858;4.472;2023-02-28T11:10:20;6.32;;;2.40;;
23714;SDS011;12036;50.858;4.472;2023-02-28T11:12:48;3.35;;;2.10;;
23714;SDS011;12036;50.858;4.472;2023-02-28T11:17:54;3.40;;;2.50;;
23714;SDS011;12036;50.858;4.472;2023-02-28T11:20:33;2.60;;;1.98;;
23714;SDS011;12036;50.858;4.472;2023-02-28T11:23:00;3.28;;;1.83;;
23714;SDS011;12036;50.858;4.472;2023-02-28T11:25:32;3.47;;;2.13;;
23714;SDS011;12036;50.858;4.472;2023-02-28T11:28:01;2.55;;;1.88;;
23714;SDS011;12036;50.858;4.472;2023-02-28T11:33:01;4.88;;;2.45;;
23714;SDS011;12036;50.858;4.472;2023-02-28T11:36:24;3.08;;;2.13;;
23714;SDS011;12036;50.858;4.472;2023-02-28T11:38:53;2.50;;;2.00;;
23714;SDS011;12036;50.858;4.472;2023-02-28T12:04:03;3.45;;;2.20;;
23714;SDS011;12036;50.858;4.472;2023-02-28T12:07:03;2.03;;;1.80;;
23714;SDS011;12036;50.858;4.472;2023-02-28T12:12:37;2.50;;;2.00;;
23714;SDS011;12036;50.858;4.472;2023-02-28T12:20:46;2.03;;;1.80;;
23714;SDS011;12036;50.858;4.472;2023-02-28T12:23:26;2.40;;;1.88;;
23714;SDS011;12036;50.858;4.472;2023-02-28T12:29:00;3.80;;;2.10;;
23714;SDS011;12036;50.858;4.472;2023-02-28T12:34:22;2.95;;;1.98;;
23714;SDS011;12036;50.858;4.472;2023-02-28T12:36:53;2.20;;;1.85;;
23714;SDS011;12036;50.858;4.472;2023-02-28T12:39:25;4.38;;;1.95;;
23714;SDS011;12036;50.858;4.472;2023-02-28T12:42:00;3.50;;;2.25;;
23714;SDS011;12036;50.858;4.472;2023-02-28T12:44:38;4.63;;;2.30;;
23714;SDS011;12036;50.858;4.472;2023-02-28T12:47:13;5.80;;;2.50;;
23714;SDS011;12036;50.858;4.472;2023-02-28T12:49:52;2.65;;;2.33;;
23714;SDS011;12036;50.858;4.472;2023-02-28T12:52:28;2.30;;;2.10;;
23714;SDS011;12036;50.858;4.472;2023-02-28T12:55:31;3.47;;;1.90;;
23714;SDS011;12036;50.858;4.472;2023-02-28T13:00:57;3.25;;;2.00;;
23714;SDS011;12036;50.858;4.472;2023-02-28T13:06:05;4.68;;;2.10;;
23714;SDS011;12036;50.858;4.472;2023-02-28T13:08:42;3.00;;;2.00;;
23714;SDS011;12036;50.858;4.472;2023-02-28T13:14:37;3.97;;;2.13;;
23714;SDS011;12036;50.858;4.472;2023-02-28T13:22:01;3.10;;;2.30;;
23714;SDS011;12036;50.858;4.472;2023-02-28T13:29:32;6.55;;;1.88;;
23714;SDS011;12036;50.858;4.472;2023-02-28T13:34:42;5.10;;;2.10;;
23714;SDS011;12036;50.858;4.472;2023-02-28T13:47:40;4.28;;;2.45;;
23714;SDS011;12036;50.858;4.472;2023-02-28T13:52:57;4.43;;;2.50;;
23714;SDS011;12036;50.858;4.472;2023-02-28T14:06:37;2.80;;;2.13;;
23714;SDS011;12036;50.858;4.472;2023-02-28T14:11:38;2.60;;;2.22;;
23714;SDS011;12036;50.858;4.472;2023-02-28T14:14:06;4.13;;;2.25;;
23714;SDS011;12036;50.858;4.472;2023-02-28T14:16:37;3.00;;;1.90;;
23714;SDS011;12036;50.858;4.472;2023-02-28T14:29:42;2.53;;;2.13;;
23714;SDS011;12036;50.858;4.472;2023-02-28T14:32:17;2.83;;;2.20;;
23714;SDS011;12036;50.858;4.472;2023-02-28T14:37:50;2.95;;;2.20;;
23714;SDS011;12036;50.858;4.472;2023-02-28T14:40:19;2.42;;;2.13;;
23714;SDS011;12036;50.858;4.472;2023-02-28T14:42:55;3.60;;;2.45;;
23714;SDS011;12036;50.858;4.472;2023-02-28T14:45:22;3.05;;;2.30;;
23714;SDS011;12036;50.858;4.472;2023-02-28T14:47:49;3.42;;;2.80;;
23714;SDS011;12036;50.858;4.472;2023-02-28T14:50:32;5.28;;;2.40;;
23714;SDS011;12036;50.858;4.472;2023-02-28T14:53:00;3.13;;;2.63;;
23714;SDS011;12036;50.858;4.472;2023-02-28T14:55:31;5.57;;;2.97;;
23714;SDS011;12036;50.858;4.472;2023-02-28T14:58:01;4.72;;;3.35;;
23714;SDS011;12036;50.858;4.472;2023-02-28T15:00:33;3.95;;;2.72;;
23714;SDS011;12036;50.858;4.472;2023-02-28T15:03:17;7.03;;;4.03;;
23714;SDS011;12036;50.858;4.472;2023-02-28T15:05:52;11.70;;;5.82;;
23714;SDS011;12036;50.858;4.472;2023-02-28T15:08:20;13.80;;;5.72;;
23714;SDS011;12036;50.858;4.472;2023-02-28T15:10:49;3.42;;;2.92;;
23714;SDS011;12036;50.858;4.472;2023-02-28T15:13:26;3.88;;;2.97;;
23714;SDS011;12036;50.858;4.472;2023-02-28T15:23:38;7.38;;;2.83;;
23714;SDS011;12036;50.858;4.472;2023-02-28T15:26:07;4.13;;;2.92;;
23714;SDS011;12036;50.858;4.472;2023-02-28T15:28:35;3.97;;;2.90;;
23714;SDS011;12036;50.858;4.472;2023-02-28T15:31:02;3.80;;;2.90;;
23714;SDS011;12036;50.858;4.472;2023-02-28T15:33:52;4.53;;;3.20;;
23714;SDS011;12036;50.858;4.472;2023-02-28T15:36:24;5.03;;;2.63;;
23714;SDS011;12036;50.858;4.472;2023-02-28T15:38:52;9.07;;;3.53;;
23714;SDS011;12036;50.858;4.472;2023-02-28T15:41:35;4.22;;;2.92;;
23714;SDS011;12036;50.858;4.472;2023-02-28T15:44:16;4.03;;;3.13;;
23714;SDS011;12036;50.858;4.472;2023-02-28T15:49:23;4.47;;;3.00;;
23714;SDS011;12036;50.858;4.472;2023-02-28T15:51:50;5.82;;;3.00;;
23714;SDS011;12036;50.858;4.472;2023-02-28T15:54:35;5.70;;;3.55;;
23714;SDS011;12036;50.858;4.472;2023-02-28T15:57:03;3.83;;;2.90;;
23714;SDS011;12036;50.858;4.472;2023-02-28T15:59:33;8.18;;;4.78;;
23714;SDS011;12036;50.858;4.472;2023-02-28T16:02:02;8.35;;;4.65;;
23714;SDS011;12036;50.858;4.472;2023-02-28T16:04:35;7.78;;;4.50;;
23714;SDS011;12036;50.858;4.472;2023-02-28T16:07:02;8.35;;;3.97;;
23714;SDS011;12036;50.858;4.472;2023-02-28T16:09:29;11.63;;;3.70;;
23714;SDS011;12036;50.858;4.472;2023-02-28T16:11:58;7.00;;;3.33;;
23714;SDS011;12036;50.858;4.472;2023-02-28T16:14:29;3.50;;;2.83;;
23714;SDS011;12036;50.858;4.472;2023-02-28T16:17:06;3.50;;;3.00;;
23714;SDS011;12036;50.858;4.472;2023-02-28T16:19:38;3.55;;;2.80;;
23714;SDS011;12036;50.858;4.472;2023-02-28T16:22:03;6.18;;;4.40;;
23714;SDS011;12036;50.858;4.472;2023-02-28T16:24:29;4.25;;;3.50;;
23714;SDS011;12036;50.858;4.472;2023-02-28T16:26:55;3.13;;;2.83;;
23714;SDS011;12036;50.858;4.472;2023-02-28T16:31:58;8.05;;;3.88;;
23714;SDS011;12036;50.858;4.472;2023-02-28T16:34:24;3.53;;;2.65;;
23714;SDS011;12036;50.858;4.472;2023-02-28T16:36:50;4.28;;;3.13;;
23714;SDS011;12036;50.858;4.472;2023-02-28T16:39:16;6.03;;;3.33;;
23714;SDS011;12036;50.858;4.472;2023-02-28T16:41:43;5.70;;;3.05;;
23714;SDS011;12036;50.858;4.472;2023-02-28T16:44:29;5.32;;;3.40;;
23714;SDS011;12036;50.858;4.472;2023-02-28T16:47:00;4.78;;;2.58;;
23714;SDS011;12036;50.858;4.472;2023-02-28T16:49:27;7.57;;;3.95;;
23714;SDS011;12036;50.858;4.472;2023-02-28T16:51:53;5.15;;;2.95;;
23714;SDS011;12036;50.858;4.472;2023-02-28T16:54:18;5.55;;;3.13;;
23714;SDS011;12036;50.858;4.472;2023-02-28T16:56:45;7.68;;;2.90;;
23714;SDS011;12036;50.858;4.472;2023-02-28T16:59:12;4.55;;;3.00;;
23714;SDS011;12036;50.858;4.472;2023-02-28T17:01:40;5.05;;;2.75;;
23714;SDS011;12036;50.858;4.472;2023-02-28T17:04:05;4.07;;;2.50;;
23714;SDS011;12036;50.858;4.472;2023-02-28T17:06:31;4.57;;;3.00;;
23714;SDS011;12036;50.858;4.472;2023-02-28T17:08:57;5.07;;;3.13;;
23714;SDS011;12036;50.858;4.472;2023-02-28T17:11:24;7.07;;;4.32;;
23714;SDS011;12036;50.858;4.472;2023-02-28T17:13:51;6.65;;;4.07;;
23714;SDS011;12036;50.858;4.472;2023-02-28T17:16:28;3.53;;;2.83;;
23714;SDS011;12036;50.858;4.472;2023-02-28T17:18:57;6.15;;;3.38;;
23714;SDS011;12036;50.858;4.472;2023-02-28T17:21:25;3.97;;;2.97;;
23714;SDS011;12036;50.858;4.472;2023-02-28T17:23:51;5.32;;;3.00;;
23714;SDS011;12036;50.858;4.472;2023-02-28T17:26:17;5.85;;;3.00;;
23714;SDS011;12036;50.858;4.472;2023-02-28T17:28:45;7.05;;;3.65;;
23714;SDS011;12036;50.858;4.472;2023-02-28T17:31:12;4.60;;;3.25;;
23714;SDS011;12036;50.858;4.472;2023-02-28T17:33:37;4.38;;;3.13;;
23714;SDS011;12036;50.858;4.472;2023-02-28T17:36:03;9.57;;;3.25;;
23714;SDS011;12036;50.858;4.472;2023-02-28T17:38:29;5.47;;;3.83;;
23714;SDS011;12036;50.858;4.472;2023-02-28T17:40:56;9.10;;;3.85;;
23714;SDS011;12036;50.858;4.472;2023-02-28T17:43:25;6.15;;;3.72;;
23714;SDS011;12036;50.858;4.472;2023-02-28T17:45:52;8.05;;;4.20;;
23714;SDS011;12036;50.858;4.472;2023-02-28T17:48:18;6.82;;;4.00;;
23714;SDS011;12036;50.858;4.472;2023-02-28T17:50:44;9.82;;;5.07;;
23714;SDS011;12036;50.858;4.472;2023-02-28T17:53:10;16.25;;;8.70;;
23714;SDS011;12036;50.858;4.472;2023-02-28T17:55:36;8.55;;;5.18;;